createdAt,value
2022-11-25T00:04:12.610Z,100781.69
2022-11-25T00:09:09.843Z,100752.22
2022-11-25T00:14:04.077Z,100808.50
2022-11-25T00:19:00.563Z,100798.41
2022-11-25T00:23:55.486Z,100597.06
2022-11-25T00:28:51.422Z,100695.06
2022-11-25T00:33:45.252Z,100770.44
2022-11-25T00:38:38.501Z,100651.66
2022-11-25T00:43:48.919Z,100648.78
2022-11-25T00:48:43.617Z,100820.56
2022-11-25T00:53:37.001Z,100826.81
2022-11-25T00:58:30.482Z,100601.31
2022-11-25T01:03:23.964Z,100606.41
2022-11-25T01:08:21.904Z,100743.25
2022-11-25T01:13:15.524Z,100772.75
2022-11-25T01:18:11.137Z,100819.13
2022-11-25T01:23:04.534Z,100814.97
2022-11-25T01:27:59.379Z,100823.09
2022-11-25T01:32:53.541Z,100808.09
2022-11-25T01:37:46.987Z,100721.03
2022-11-25T01:42:44.417Z,100840.78
2022-11-25T01:47:39.291Z,100613.94
2022-11-25T01:52:37.517Z,100829.88
2022-11-25T01:57:36.800Z,100623.06
2022-11-25T02:02:31.844Z,100758.41
2022-11-25T02:07:36.649Z,100743.41
2022-11-25T02:12:31.485Z,100835.38
2022-11-25T02:17:28.062Z,100634.38
2022-11-25T02:22:27.941Z,100851.34
2022-11-25T02:27:30.118Z,100835.38
2022-11-25T02:32:25.475Z,100828.66
2022-11-25T02:37:22.945Z,100860.88
2022-11-25T02:42:18.408Z,100823.19
2022-11-25T02:47:14.131Z,100761.47
2022-11-25T02:52:07.777Z,100863.69
2022-11-25T02:57:01.176Z,100667.84
2022-11-25T03:01:54.869Z,100758.19
2022-11-25T03:06:53.679Z,100758.41
2022-11-25T03:12:04.728Z,100786.13
2022-11-25T03:16:57.997Z,100889.75
2022-11-25T03:21:57.153Z,100757.19
2022-11-25T03:26:50.481Z,100784.81
2022-11-25T03:31:44.688Z,100901.56
2022-11-25T03:36:39.938Z,100858.75
2022-11-25T03:41:36.896Z,100716.31
2022-11-25T03:46:30.760Z,100691.13
2022-11-25T03:51:28.787Z,100922.59
2022-11-25T03:56:31.606Z,100911.31
2022-11-25T04:01:26.678Z,100624.31
2022-11-25T04:06:22.624Z,100866.22
2022-11-25T04:11:17.966Z,100922.75
2022-11-25T04:16:27.134Z,100909.56
2022-11-25T04:21:23.007Z,100698.78
2022-11-25T04:26:19.763Z,100804.47
2022-11-25T04:31:14.318Z,100953.94
2022-11-25T04:36:12.617Z,100731.25
2022-11-25T04:41:12.907Z,100740.69
2022-11-25T04:46:28.111Z,100870.63
2022-11-25T04:51:24.584Z,100835.72
2022-11-25T04:56:25.396Z,100769.91
2022-11-25T05:01:21.090Z,100994.69
2022-11-25T05:06:20.584Z,100788.47
2022-11-25T05:11:14.293Z,100780.31
2022-11-25T05:16:14.585Z,101002.63
2022-11-25T05:21:16.154Z,100938.28
2022-11-25T05:26:11.290Z,100807.78
2022-11-25T05:31:10.682Z,100954.03
2022-11-25T05:36:09.057Z,100945.63
2022-11-25T05:41:41.943Z,100913.16
2022-11-25T05:46:41.921Z,101052.53
2022-11-25T05:51:46.006Z,100881.84
2022-11-25T05:56:43.144Z,100847.25
2022-11-25T06:01:56.206Z,100894.78
2022-11-25T06:06:49.673Z,101068.53
2022-11-25T06:11:44.241Z,101073.84
2022-11-25T06:16:37.808Z,101062.94
2022-11-25T06:21:46.047Z,101121.38
2022-11-25T06:26:40.380Z,101013.94
2022-11-25T06:31:35.946Z,101136.72
2022-11-25T06:36:41.406Z,100991.25
2022-11-25T06:41:36.379Z,100950.28
2022-11-25T06:46:29.821Z,101127.19
2022-11-25T06:51:24.804Z,101128.84
2022-11-25T06:56:20.805Z,101107.03
2022-11-25T07:01:17.951Z,101022.53
2022-11-25T07:06:12.974Z,101130.00
2022-11-25T07:11:08.680Z,101154.34
2022-11-25T07:16:05.571Z,101128.81
2022-11-25T07:21:10.827Z,101018.19
2022-11-25T07:26:06.410Z,101175.44
2022-11-25T07:31:29.027Z,101100.88
2022-11-25T07:36:24.848Z,101117.31
2022-11-25T07:41:20.473Z,101126.84
2022-11-25T07:46:16.733Z,101089.63
2022-11-25T07:51:16.907Z,101092.44
2022-11-25T07:56:11.889Z,100949.28
2022-11-25T08:01:07.278Z,101199.75
2022-11-25T08:06:02.358Z,101094.38
2022-11-25T08:10:55.664Z,101032.50
2022-11-25T08:15:56.553Z,101130.16
2022-11-25T08:20:50.091Z,101225.59
2022-11-25T08:25:50.447Z,101172.88
2022-11-25T08:31:05.955Z,101240.53
2022-11-25T08:35:59.696Z,101016.03
2022-11-25T08:40:56.615Z,101264.75
2022-11-25T08:45:53.370Z,101041.38
2022-11-25T08:51:05.944Z,101251.00
2022-11-25T08:55:59.670Z,101123.63
2022-11-25T09:00:59.890Z,101018.19
2022-11-25T09:05:58.717Z,101250.66
2022-11-25T09:10:52.911Z,101213.81
2022-11-25T09:15:50.832Z,101180.59
2022-11-25T09:20:44.641Z,101047.66
2022-11-25T09:25:39.799Z,101121.16
2022-11-25T09:30:33.381Z,101069.84
2022-11-25T09:35:28.652Z,100977.84
2022-11-25T09:40:30.069Z,101189.97
2022-11-25T09:45:50.051Z,101265.78
2022-11-25T09:50:55.748Z,101261.25
2022-11-25T09:55:55.932Z,101143.81
2022-11-25T10:00:56.122Z,101243.06
2022-11-25T10:05:59.075Z,101171.09
2022-11-25T10:10:59.946Z,101249.47
2022-11-25T10:16:00.867Z,101005.94
2022-11-25T10:20:55.440Z,101180.09
2022-11-25T10:25:57.296Z,101107.28
2022-11-25T10:30:59.771Z,101251.47
2022-11-25T10:35:58.175Z,101044.63
2022-11-25T10:40:53.884Z,101055.56
2022-11-25T10:45:55.378Z,101147.16
2022-11-25T10:51:04.593Z,101222.75
2022-11-25T10:56:01.256Z,101061.31
2022-11-25T11:01:08.446Z,101257.66
2022-11-25T11:06:03.160Z,101263.38
2022-11-25T11:11:16.278Z,101160.03
2022-11-25T11:16:26.475Z,101189.63
2022-11-25T11:21:30.419Z,101260.41
2022-11-25T11:26:26.949Z,101263.94
2022-11-25T11:31:25.580Z,101071.75
2022-11-25T11:36:33.072Z,101254.41
2022-11-25T11:41:38.071Z,101241.81
2022-11-25T11:46:42.340Z,101189.31
2022-11-25T11:51:46.434Z,101265.56
2022-11-25T11:56:43.948Z,101228.50
2022-11-25T12:01:49.798Z,101257.56
2022-11-25T12:06:49.888Z,101190.53
2022-11-25T12:11:47.333Z,101247.44
2022-11-25T12:16:47.983Z,101150.47
2022-11-25T12:21:52.461Z,101236.88
2022-11-25T12:26:52.732Z,101159.78
2022-11-25T12:31:53.798Z,101226.19
2022-11-25T12:37:30.953Z,101026.03
2022-11-25T12:42:26.988Z,101242.59
2022-11-25T12:47:21.790Z,101205.66
2022-11-25T12:52:38.506Z,101275.31
2022-11-25T12:58:23.736Z,101281.53
2022-11-25T13:03:43.798Z,101159.34
2022-11-25T13:09:01.521Z,101274.09
2022-11-25T13:14:03.765Z,101216.81
2022-11-25T13:18:57.845Z,101274.56
2022-11-25T13:23:56.527Z,101278.88
2022-11-25T13:28:51.668Z,101280.22
2022-11-25T13:34:03.768Z,101293.09
2022-11-25T13:39:08.000Z,101096.38
2022-11-25T13:44:10.280Z,101224.34
2022-11-25T13:49:03.770Z,101308.84
2022-11-25T13:54:02.648Z,101202.06
2022-11-25T13:59:35.929Z,101317.34
2022-11-25T14:04:45.449Z,101315.19
2022-11-25T14:09:57.627Z,101323.34
2022-11-25T14:15:12.278Z,101302.59
2022-11-25T14:20:23.358Z,101293.47
2022-11-25T14:25:23.626Z,101333.41
2022-11-25T14:30:19.940Z,101309.25
2022-11-25T14:35:18.149Z,101329.31
2022-11-25T14:40:20.771Z,101345.00
2022-11-25T14:45:29.302Z,101318.88
2022-11-25T14:50:39.151Z,101308.59
2022-11-25T14:55:33.087Z,101325.75
2022-11-25T15:00:31.392Z,101261.41
2022-11-25T15:05:27.451Z,101345.34
2022-11-25T15:10:31.899Z,101338.75
2022-11-25T15:15:31.834Z,101294.16
2022-11-25T15:20:30.534Z,101106.06
2022-11-25T15:25:24.330Z,101319.41
2022-11-25T15:30:27.899Z,101281.00
2022-11-25T15:35:28.852Z,101201.47
2022-11-25T15:40:40.854Z,101191.44
2022-11-25T15:45:44.091Z,101364.75
2022-11-25T15:50:42.850Z,101375.22
2022-11-25T15:55:39.166Z,101376.53
2022-11-25T16:00:32.778Z,101389.88
2022-11-25T16:05:41.816Z,101389.34
2022-11-25T16:10:52.788Z,101391.47
2022-11-25T16:15:47.259Z,101401.78
2022-11-25T16:20:48.726Z,101330.25
2022-11-25T16:25:42.664Z,101376.09
2022-11-25T16:30:38.892Z,101416.63
2022-11-25T16:35:32.373Z,101394.19
2022-11-25T16:40:28.050Z,101196.81
2022-11-25T16:45:23.447Z,101266.09
2022-11-25T16:50:18.151Z,101199.59
2022-11-25T16:55:11.627Z,101326.00
2022-11-25T17:00:13.783Z,101287.03
2022-11-25T17:05:22.452Z,101454.53
2022-11-25T17:10:32.352Z,101427.16
2022-11-25T17:15:39.949Z,101457.53
2022-11-25T17:20:51.243Z,101173.31
2022-11-25T17:25:50.848Z,101421.69
2022-11-25T17:31:03.167Z,101173.84
2022-11-25T17:36:07.914Z,101460.75
2022-11-25T17:41:03.889Z,101267.06
2022-11-25T17:46:19.414Z,101469.16
2022-11-25T17:53:35.830Z,101266.41
2022-11-25T18:12:35.812Z,101224.81
2022-11-25T18:25:57.115Z,101296.56
2022-11-25T18:32:22.328Z,101244.00
2022-11-25T18:44:52.572Z,101219.41
2022-11-25T18:58:00.743Z,101250.25
2022-11-25T19:03:37.287Z,101522.44
2022-11-25T19:09:18.386Z,101368.38
2022-11-25T19:15:16.881Z,101547.34
2022-11-25T19:27:37.089Z,101552.91
2022-11-25T19:32:49.592Z,101333.91
2022-11-25T19:44:08.566Z,101309.31
2022-11-25T19:49:07.430Z,101397.44
2022-11-25T19:55:04.442Z,101286.63
2022-11-25T20:18:49.567Z,101350.59
2022-11-25T20:46:44.965Z,101623.72
2022-11-25T20:59:52.749Z,101585.53
2022-11-25T21:12:20.765Z,101375.38
2022-11-25T21:51:41.018Z,101439.53
2022-11-25T21:56:59.506Z,101618.66
2022-11-25T22:09:03.943Z,101541.78
2022-11-25T22:14:47.071Z,101482.50
2022-11-25T22:32:12.583Z,101706.00
2022-11-25T22:37:31.071Z,101569.88
2022-11-25T22:43:32.037Z,101644.34
2022-11-25T22:48:56.993Z,101603.31
2022-11-25T22:53:52.414Z,101723.88
2022-11-25T22:58:48.844Z,101463.16
2022-11-25T23:09:38.606Z,101487.25
2022-11-25T23:14:33.549Z,101508.66
2022-11-25T23:19:52.398Z,101523.13
2022-11-25T23:24:57.790Z,101510.56
2022-11-25T23:30:09.238Z,101584.97
2022-11-25T23:35:16.289Z,101502.22
2022-11-25T23:40:25.407Z,101569.34
2022-11-25T23:45:41.697Z,101770.41
2022-11-25T23:50:41.550Z,101787.00
2022-11-25T23:55:59.810Z,101672.06
